sensor_id;sensor_type;location;lat;lon;timestamp;P1;durP1;ratioP1;P2;durP2;ratioP2
54897;SDS011;40800;52.704;6.398;2022-11-21T00:00:41;41.22;;;34.80;;
54897;SDS011;40800;52.704;6.398;2022-11-21T00:03:09;42.70;;;36.17;;
54897;SDS011;40800;52.704;6.398;2022-11-21T00:05:37;45.33;;;36.10;;
54897;SDS011;40800;52.704;6.398;2022-11-21T00:08:05;41.40;;;35.42;;
54897;SDS011;40800;52.704;6.398;2022-11-21T00:10:31;44.15;;;37.05;;
54897;SDS011;40800;52.704;6.398;2022-11-21T00:12:57;40.75;;;35.97;;
54897;SDS011;40800;52.704;6.398;2022-11-21T00:15:24;40.10;;;34.60;;
54897;SDS011;40800;52.704;6.398;2022-11-21T00:17:50;43.25;;;36.42;;
54897;SDS011;40800;52.704;6.398;2022-11-21T00:20:16;41.95;;;35.30;;
54897;SDS011;40800;52.704;6.398;2022-11-21T00:22:43;41.63;;;34.90;;
54897;SDS011;40800;52.704;6.398;2022-11-21T00:25:08;40.42;;;34.33;;
54897;SDS011;40800;52.704;6.398;2022-11-21T00:27:34;42.83;;;36.05;;
54897;SDS011;40800;52.704;6.398;2022-11-21T00:30:00;42.10;;;35.92;;
54897;SDS011;40800;52.704;6.398;2022-11-21T00:32:25;40.63;;;36.13;;
54897;SDS011;40800;52.704;6.398;2022-11-21T00:34:51;43.67;;;36.03;;
54897;SDS011;40800;52.704;6.398;2022-11-21T00:37:16;42.05;;;35.15;;
54897;SDS011;40800;52.704;6.398;2022-11-21T00:39:42;38.88;;;34.53;;
54897;SDS011;40800;52.704;6.398;2022-11-21T00:42:07;41.03;;;34.63;;
54897;SDS011;40800;52.704;6.398;2022-11-21T00:44:33;41.38;;;35.22;;
54897;SDS011;40800;52.704;6.398;2022-11-21T00:46:58;38.80;;;34.42;;
54897;SDS011;40800;52.704;6.398;2022-11-21T00:49:24;39.42;;;34.50;;
54897;SDS011;40800;52.704;6.398;2022-11-21T00:51:50;41.95;;;35.22;;
54897;SDS011;40800;52.704;6.398;2022-11-21T00:54:15;44.30;;;37.03;;
54897;SDS011;40800;52.704;6.398;2022-11-21T00:56:41;39.97;;;34.70;;
54897;SDS011;40800;52.704;6.398;2022-11-21T00:59:06;41.92;;;35.85;;
54897;SDS011;40800;52.704;6.398;2022-11-21T01:01:32;40.92;;;35.65;;
54897;SDS011;40800;52.704;6.398;2022-11-21T01:03:57;42.08;;;35.40;;
54897;SDS011;40800;52.704;6.398;2022-11-21T01:06:23;47.60;;;36.95;;
54897;SDS011;40800;52.704;6.398;2022-11-21T01:08:48;43.95;;;36.33;;
54897;SDS011;40800;52.704;6.398;2022-11-21T01:11:15;44.58;;;36.78;;
54897;SDS011;40800;52.704;6.398;2022-11-21T01:13:42;38.90;;;34.03;;
54897;SDS011;40800;52.704;6.398;2022-11-21T01:16:10;41.00;;;33.90;;
54897;SDS011;40800;52.704;6.398;2022-11-21T01:18:39;41.45;;;34.40;;
54897;SDS011;40800;52.704;6.398;2022-11-21T01:21:12;48.03;;;36.67;;
54897;SDS011;40800;52.704;6.398;2022-11-21T01:23:42;45.45;;;35.67;;
54897;SDS011;40800;52.704;6.398;2022-11-21T01:26:10;42.47;;;34.70;;
54897;SDS011;40800;52.704;6.398;2022-11-21T01:28:37;44.47;;;35.90;;
54897;SDS011;40800;52.704;6.398;2022-11-21T01:31:06;48.80;;;37.75;;
54897;SDS011;40800;52.704;6.398;2022-11-21T01:33:40;48.08;;;38.25;;
54897;SDS011;40800;52.704;6.398;2022-11-21T01:38:37;50.20;;;39.17;;
54897;SDS011;40800;52.704;6.398;2022-11-21T01:43:29;50.45;;;38.53;;
54897;SDS011;40800;52.704;6.398;2022-11-21T01:45:56;50.08;;;38.88;;
54897;SDS011;40800;52.704;6.398;2022-11-21T01:48:46;54.97;;;41.28;;
54897;SDS011;40800;52.704;6.398;2022-11-21T01:53:34;47.65;;;38.30;;
54897;SDS011;40800;52.704;6.398;2022-11-21T01:56:02;46.38;;;37.75;;
54897;SDS011;40800;52.704;6.398;2022-11-21T01:58:29;52.80;;;40.30;;
54897;SDS011;40800;52.704;6.398;2022-11-21T02:00:56;46.13;;;37.55;;
54897;SDS011;40800;52.704;6.398;2022-11-21T02:03:23;43.30;;;36.15;;
54897;SDS011;40800;52.704;6.398;2022-11-21T02:05:52;46.70;;;37.80;;
54897;SDS011;40800;52.704;6.398;2022-11-21T02:10:57;48.15;;;39.33;;
54897;SDS011;40800;52.704;6.398;2022-11-21T02:13:36;41.80;;;35.50;;
54897;SDS011;40800;52.704;6.398;2022-11-21T02:16:01;46.15;;;37.58;;
54897;SDS011;40800;52.704;6.398;2022-11-21T02:18:27;49.67;;;38.85;;
54897;SDS011;40800;52.704;6.398;2022-11-21T02:20:55;54.60;;;40.92;;
54897;SDS011;40800;52.704;6.398;2022-11-21T02:23:35;53.42;;;40.92;;
54897;SDS011;40800;52.704;6.398;2022-11-21T02:26:18;44.00;;;35.22;;
54897;SDS011;40800;52.704;6.398;2022-11-21T02:28:43;39.03;;;34.13;;
54897;SDS011;40800;52.704;6.398;2022-11-21T02:31:09;40.70;;;34.67;;
54897;SDS011;40800;52.704;6.398;2022-11-21T02:33:35;41.97;;;36.08;;
54897;SDS011;40800;52.704;6.398;2022-11-21T02:36:01;44.42;;;36.80;;
54897;SDS011;40800;52.704;6.398;2022-11-21T02:38:28;47.92;;;38.90;;
54897;SDS011;40800;52.704;6.398;2022-11-21T02:41:02;55.95;;;40.90;;
54897;SDS011;40800;52.704;6.398;2022-11-21T02:43:37;48.70;;;38.90;;
54897;SDS011;40800;52.704;6.398;2022-11-21T02:46:13;40.38;;;34.28;;
54897;SDS011;40800;52.704;6.398;2022-11-21T02:48:39;40.72;;;35.55;;
54897;SDS011;40800;52.704;6.398;2022-11-21T02:51:05;41.03;;;34.20;;
54897;SDS011;40800;52.704;6.398;2022-11-21T02:53:30;40.38;;;34.05;;
54897;SDS011;40800;52.704;6.398;2022-11-21T02:55:56;40.33;;;34.88;;
54897;SDS011;40800;52.704;6.398;2022-11-21T02:58:21;42.15;;;35.67;;
54897;SDS011;40800;52.704;6.398;2022-11-21T03:00:47;41.42;;;34.47;;
54897;SDS011;40800;52.704;6.398;2022-11-21T03:03:13;42.07;;;35.60;;
54897;SDS011;40800;52.704;6.398;2022-11-21T03:05:38;39.28;;;34.70;;
54897;SDS011;40800;52.704;6.398;2022-11-21T03:08:05;40.22;;;35.22;;
54897;SDS011;40800;52.704;6.398;2022-11-21T03:10:31;41.08;;;36.00;;
54897;SDS011;40800;52.704;6.398;2022-11-21T03:12:57;39.17;;;34.83;;
54897;SDS011;40800;52.704;6.398;2022-11-21T03:15:26;37.28;;;33.25;;
54897;SDS011;40800;52.704;6.398;2022-11-21T03:17:53;37.60;;;33.33;;
54897;SDS011;40800;52.704;6.398;2022-11-21T03:20:19;40.28;;;34.42;;
54897;SDS011;40800;52.704;6.398;2022-11-21T03:22:44;49.78;;;38.85;;
54897;SDS011;40800;52.704;6.398;2022-11-21T03:25:10;39.75;;;33.60;;
54897;SDS011;40800;52.704;6.398;2022-11-21T03:27:35;38.72;;;34.47;;
54897;SDS011;40800;52.704;6.398;2022-11-21T03:30:01;38.25;;;33.35;;
54897;SDS011;40800;52.704;6.398;2022-11-21T03:32:27;36.80;;;32.80;;
54897;SDS011;40800;52.704;6.398;2022-11-21T03:34:52;50.47;;;37.72;;
54897;SDS011;40800;52.704;6.398;2022-11-21T03:37:18;53.00;;;39.80;;
54897;SDS011;40800;52.704;6.398;2022-11-21T03:39:43;58.00;;;42.05;;
54897;SDS011;40800;52.704;6.398;2022-11-21T03:42:09;36.15;;;32.05;;
54897;SDS011;40800;52.704;6.398;2022-11-21T03:44:34;40.50;;;34.28;;
54897;SDS011;40800;52.704;6.398;2022-11-21T03:47:00;49.17;;;39.78;;
54897;SDS011;40800;52.704;6.398;2022-11-21T03:49:26;42.53;;;34.95;;
54897;SDS011;40800;52.704;6.398;2022-11-21T03:51:51;44.13;;;35.92;;
54897;SDS011;40800;52.704;6.398;2022-11-21T03:54:17;43.88;;;36.35;;
54897;SDS011;40800;52.704;6.398;2022-11-21T03:56:42;37.60;;;33.55;;
54897;SDS011;40800;52.704;6.398;2022-11-21T03:59:08;39.25;;;33.83;;
54897;SDS011;40800;52.704;6.398;2022-11-21T04:01:33;40.20;;;34.80;;
54897;SDS011;40800;52.704;6.398;2022-11-21T04:03:59;38.33;;;33.20;;
54897;SDS011;40800;52.704;6.398;2022-11-21T04:06:24;38.63;;;34.20;;
54897;SDS011;40800;52.704;6.398;2022-11-21T04:08:51;38.88;;;34.15;;
54897;SDS011;40800;52.704;6.398;2022-11-21T04:11:17;37.55;;;33.45;;
54897;SDS011;40800;52.704;6.398;2022-11-21T04:13:43;36.43;;;32.53;;
54897;SDS011;40800;52.704;6.398;2022-11-21T04:16:08;36.60;;;32.60;;
54897;SDS011;40800;52.704;6.398;2022-11-21T04:18:34;35.55;;;31.75;;
54897;SDS011;40800;52.704;6.398;2022-11-21T04:21:00;38.45;;;33.78;;
54897;SDS011;40800;52.704;6.398;2022-11-21T04:23:28;37.88;;;32.58;;
54897;SDS011;40800;52.704;6.398;2022-11-21T04:25:54;37.90;;;32.42;;
54897;SDS011;40800;52.704;6.398;2022-11-21T04:28:20;37.78;;;32.58;;
54897;SDS011;40800;52.704;6.398;2022-11-21T04:30:46;38.92;;;34.42;;
54897;SDS011;40800;52.704;6.398;2022-11-21T04:33:12;39.10;;;34.78;;
54897;SDS011;40800;52.704;6.398;2022-11-21T04:35:39;39.40;;;32.80;;
54897;SDS011;40800;52.704;6.398;2022-11-21T04:40:32;37.67;;;33.60;;
54897;SDS011;40800;52.704;6.398;2022-11-21T04:42:58;37.75;;;33.50;;
54897;SDS011;40800;52.704;6.398;2022-11-21T04:45:23;36.38;;;32.10;;
54897;SDS011;40800;52.704;6.398;2022-11-21T04:47:49;36.28;;;32.47;;
54897;SDS011;40800;52.704;6.398;2022-11-21T04:50:15;35.75;;;30.73;;
54897;SDS011;40800;52.704;6.398;2022-11-21T04:52:41;35.60;;;31.77;;
54897;SDS011;40800;52.704;6.398;2022-11-21T04:55:12;37.05;;;32.63;;
54897;SDS011;40800;52.704;6.398;2022-11-21T04:57:38;41.20;;;33.90;;
54897;SDS011;40800;52.704;6.398;2022-11-21T05:00:03;39.40;;;33.45;;
54897;SDS011;40800;52.704;6.398;2022-11-21T05:02:30;37.77;;;31.93;;
54897;SDS011;40800;52.704;6.398;2022-11-21T05:04:57;35.08;;;30.88;;
54897;SDS011;40800;52.704;6.398;2022-11-21T05:07:22;35.72;;;31.50;;
54897;SDS011;40800;52.704;6.398;2022-11-21T05:09:48;39.08;;;34.08;;
54897;SDS011;40800;52.704;6.398;2022-11-21T05:12:13;42.65;;;34.55;;
54897;SDS011;40800;52.704;6.398;2022-11-21T05:14:57;38.72;;;32.78;;
54897;SDS011;40800;52.704;6.398;2022-11-21T05:17:23;37.58;;;32.90;;
54897;SDS011;40800;52.704;6.398;2022-11-21T05:19:48;38.28;;;34.03;;
54897;SDS011;40800;52.704;6.398;2022-11-21T05:22:14;37.97;;;33.97;;
54897;SDS011;40800;52.704;6.398;2022-11-21T05:24:40;38.33;;;34.08;;
54897;SDS011;40800;52.704;6.398;2022-11-21T05:27:05;48.80;;;39.53;;
54897;SDS011;40800;52.704;6.398;2022-11-21T05:29:31;51.15;;;38.42;;
54897;SDS011;40800;52.704;6.398;2022-11-21T05:31:56;57.90;;;40.35;;
54897;SDS011;40800;52.704;6.398;2022-11-21T05:34:22;51.05;;;40.42;;
54897;SDS011;40800;52.704;6.398;2022-11-21T05:36:47;88.97;;;44.13;;
54897;SDS011;40800;52.704;6.398;2022-11-21T05:39:13;65.88;;;45.35;;
54897;SDS011;40800;52.704;6.398;2022-11-21T05:41:40;51.65;;;39.72;;
54897;SDS011;40800;52.704;6.398;2022-11-21T05:44:05;49.22;;;38.55;;
54897;SDS011;40800;52.704;6.398;2022-11-21T05:46:31;55.88;;;40.80;;
54897;SDS011;40800;52.704;6.398;2022-11-21T05:48:56;50.95;;;40.00;;
54897;SDS011;40800;52.704;6.398;2022-11-21T05:51:22;52.40;;;40.92;;
54897;SDS011;40800;52.704;6.398;2022-11-21T05:53:47;61.75;;;44.72;;
54897;SDS011;40800;52.704;6.398;2022-11-21T05:56:14;58.53;;;43.25;;
54897;SDS011;40800;52.704;6.398;2022-11-21T05:58:42;62.38;;;45.08;;
54897;SDS011;40800;52.704;6.398;2022-11-21T06:01:08;53.17;;;43.17;;
54897;SDS011;40800;52.704;6.398;2022-11-21T06:03:36;51.17;;;40.45;;
54897;SDS011;40800;52.704;6.398;2022-11-21T06:08:38;47.38;;;39.13;;
54897;SDS011;40800;52.704;6.398;2022-11-21T06:11:06;44.53;;;38.30;;
54897;SDS011;40800;52.704;6.398;2022-11-21T06:13:33;53.92;;;43.70;;
54897;SDS011;40800;52.704;6.398;2022-11-21T06:16:03;60.23;;;46.23;;
54897;SDS011;40800;52.704;6.398;2022-11-21T06:18:35;54.40;;;42.58;;
54897;SDS011;40800;52.704;6.398;2022-11-21T06:21:03;55.08;;;42.85;;
54897;SDS011;40800;52.704;6.398;2022-11-21T06:23:33;54.00;;;41.70;;
54897;SDS011;40800;52.704;6.398;2022-11-21T06:26:00;50.50;;;40.27;;
54897;SDS011;40800;52.704;6.398;2022-11-21T06:28:31;56.78;;;43.55;;
54897;SDS011;40800;52.704;6.398;2022-11-21T06:31:03;58.85;;;45.08;;
54897;SDS011;40800;52.704;6.398;2022-11-21T06:33:36;54.28;;;41.78;;
54897;SDS011;40800;52.704;6.398;2022-11-21T06:36:23;50.00;;;40.55;;
54897;SDS011;40800;52.704;6.398;2022-11-21T06:38:48;54.45;;;42.85;;
54897;SDS011;40800;52.704;6.398;2022-11-21T06:41:16;51.42;;;40.63;;
54897;SDS011;40800;52.704;6.398;2022-11-21T06:43:54;52.30;;;42.88;;
54897;SDS011;40800;52.704;6.398;2022-11-21T06:46:26;56.33;;;43.28;;
54897;SDS011;40800;52.704;6.398;2022-11-21T06:48:52;58.08;;;43.58;;
54897;SDS011;40800;52.704;6.398;2022-11-21T06:51:19;52.10;;;42.70;;
54897;SDS011;40800;52.704;6.398;2022-11-21T06:53:46;50.88;;;41.03;;
54897;SDS011;40800;52.704;6.398;2022-11-21T06:56:19;52.60;;;42.13;;
54897;SDS011;40800;52.704;6.398;2022-11-21T06:58:45;58.70;;;40.58;;
54897;SDS011;40800;52.704;6.398;2022-11-21T07:01:11;58.72;;;45.28;;
54897;SDS011;40800;52.704;6.398;2022-11-21T07:03:37;64.07;;;47.20;;
54897;SDS011;40800;52.704;6.398;2022-11-21T07:06:03;60.23;;;46.63;;
54897;SDS011;40800;52.704;6.398;2022-11-21T07:11:00;69.45;;;50.28;;
54897;SDS011;40800;52.704;6.398;2022-11-21T07:13:27;78.03;;;53.85;;
54897;SDS011;40800;52.704;6.398;2022-11-21T07:15:54;79.97;;;55.43;;
54897;SDS011;40800;52.704;6.398;2022-11-21T07:18:25;96.30;;;59.33;;
54897;SDS011;40800;52.704;6.398;2022-11-21T07:20:51;101.25;;;60.88;;
54897;SDS011;40800;52.704;6.398;2022-11-21T07:23:16;111.73;;;63.43;;
54897;SDS011;40800;52.704;6.398;2022-11-21T07:25:42;166.03;;;73.03;;
54897;SDS011;40800;52.704;6.398;2022-11-21T07:28:08;186.87;;;73.87;;
54897;SDS011;40800;52.704;6.398;2022-11-21T07:30:37;216.30;;;81.00;;
54897;SDS011;40800;52.704;6.398;2022-11-21T07:33:04;221.35;;;83.82;;
54897;SDS011;40800;52.704;6.398;2022-11-21T07:35:31;260.40;;;92.13;;
54897;SDS011;40800;52.704;6.398;2022-11-21T07:37:57;234.55;;;80.55;;
54897;SDS011;40800;52.704;6.398;2022-11-21T07:40:23;343.50;;;95.90;;
54897;SDS011;40800;52.704;6.398;2022-11-21T07:42:49;379.50;;;96.18;;
54897;SDS011;40800;52.704;6.398;2022-11-21T07:45:14;292.98;;;87.88;;
54897;SDS011;40800;52.704;6.398;2022-11-21T07:47:40;377.58;;;97.80;;
54897;SDS011;40800;52.704;6.398;2022-11-21T07:50:07;441.97;;;113.03;;
54897;SDS011;40800;52.704;6.398;2022-11-21T07:52:34;357.10;;;85.82;;
54897;SDS011;40800;52.704;6.398;2022-11-21T07:54:59;465.75;;;107.45;;
54897;SDS011;40800;52.704;6.398;2022-11-21T07:57:28;412.85;;;92.80;;
54897;SDS011;40800;52.704;6.398;2022-11-21T07:59:54;429.00;;;89.28;;
54897;SDS011;40800;52.704;6.398;2022-11-21T08:02:21;486.07;;;100.43;;
54897;SDS011;40800;52.704;6.398;2022-11-21T08:04:49;321.92;;;78.05;;
54897;SDS011;40800;52.704;6.398;2022-11-21T08:07:15;243.25;;;66.93;;
54897;SDS011;40800;52.704;6.398;2022-11-21T08:09:42;69.75;;;49.63;;
54897;SDS011;40800;52.704;6.398;2022-11-21T08:12:08;540.38;;;112.60;;
54897;SDS011;40800;52.704;6.398;2022-11-21T08:14:34;444.83;;;93.77;;
54897;SDS011;40800;52.704;6.398;2022-11-21T08:16:59;491.73;;;108.07;;
54897;SDS011;40800;52.704;6.398;2022-11-21T08:19:25;313.33;;;81.68;;
54897;SDS011;40800;52.704;6.398;2022-11-21T08:21:50;391.77;;;87.93;;
54897;SDS011;40800;52.704;6.398;2022-11-21T08:24:16;410.10;;;85.50;;
54897;SDS011;40800;52.704;6.398;2022-11-21T08:26:44;258.63;;;68.90;;
54897;SDS011;40800;52.704;6.398;2022-11-21T08:29:11;475.33;;;95.22;;
54897;SDS011;40800;52.704;6.398;2022-11-21T08:31:37;268.55;;;69.13;;
54897;SDS011;40800;52.704;6.398;2022-11-21T08:34:03;189.77;;;59.38;;
54897;SDS011;40800;52.704;6.398;2022-11-21T08:36:29;96.68;;;48.42;;
54897;SDS011;40800;52.704;6.398;2022-11-21T08:38:55;232.77;;;60.75;;
54897;SDS011;40800;52.704;6.398;2022-11-21T08:41:21;229.38;;;59.08;;
54897;SDS011;40800;52.704;6.398;2022-11-21T08:44:05;60.90;;;41.40;;
54897;SDS011;40800;52.704;6.398;2022-11-21T08:46:31;268.80;;;59.25;;
54897;SDS011;40800;52.704;6.398;2022-11-21T08:49:01;77.97;;;41.58;;
54897;SDS011;40800;52.704;6.398;2022-11-21T08:51:30;90.32;;;42.15;;
54897;SDS011;40800;52.704;6.398;2022-11-21T08:53:56;359.27;;;70.65;;
54897;SDS011;40800;52.704;6.398;2022-11-21T08:56:22;438.88;;;83.47;;
54897;SDS011;40800;52.704;6.398;2022-11-21T08:58:48;216.67;;;55.47;;
54897;SDS011;40800;52.704;6.398;2022-11-21T09:01:13;169.15;;;52.80;;
54897;SDS011;40800;52.704;6.398;2022-11-21T09:03:39;152.75;;;53.97;;
54897;SDS011;40800;52.704;6.398;2022-11-21T09:06:05;138.20;;;52.42;;
54897;SDS011;40800;52.704;6.398;2022-11-21T09:08:31;83.80;;;46.50;;
54897;SDS011;40800;52.704;6.398;2022-11-21T09:10:57;83.88;;;45.47;;
54897;SDS011;40800;52.704;6.398;2022-11-21T09:13:27;80.78;;;45.80;;
54897;SDS011;40800;52.704;6.398;2022-11-21T09:15:52;67.40;;;43.47;;
54897;SDS011;40800;52.704;6.398;2022-11-21T09:18:37;56.72;;;39.92;;
54897;SDS011;40800;52.704;6.398;2022-11-21T09:21:02;57.55;;;41.00;;
54897;SDS011;40800;52.704;6.398;2022-11-21T09:23:28;55.83;;;40.10;;
54897;SDS011;40800;52.704;6.398;2022-11-21T09:25:53;56.53;;;39.58;;
54897;SDS011;40800;52.704;6.398;2022-11-21T09:28:20;42.03;;;34.30;;
54897;SDS011;40800;52.704;6.398;2022-11-21T09:30:45;49.17;;;36.65;;
54897;SDS011;40800;52.704;6.398;2022-11-21T09:33:12;41.85;;;34.75;;
54897;SDS011;40800;52.704;6.398;2022-11-21T09:35:38;42.40;;;34.63;;
54897;SDS011;40800;52.704;6.398;2022-11-21T09:38:04;40.72;;;34.15;;
54897;SDS011;40800;52.704;6.398;2022-11-21T09:40:30;40.87;;;34.03;;
54897;SDS011;40800;52.704;6.398;2022-11-21T09:45:50;51.50;;;38.95;;
54897;SDS011;40800;52.704;6.398;2022-11-21T09:48:26;60.60;;;41.17;;
54897;SDS011;40800;52.704;6.398;2022-11-21T09:51:03;51.15;;;39.45;;
54897;SDS011;40800;52.704;6.398;2022-11-21T09:53:35;49.80;;;36.72;;
54897;SDS011;40800;52.704;6.398;2022-11-21T09:56:05;39.35;;;33.92;;
54897;SDS011;40800;52.704;6.398;2022-11-21T10:01:09;38.92;;;33.45;;
54897;SDS011;40800;52.704;6.398;2022-11-21T10:03:43;39.20;;;33.30;;
54897;SDS011;40800;52.704;6.398;2022-11-21T10:11:33;37.25;;;32.30;;
54897;SDS011;40800;52.704;6.398;2022-11-21T10:20:30;32.42;;;28.90;;
54897;SDS011;40800;52.704;6.398;2022-11-21T10:32:02;30.70;;;27.60;;
54897;SDS011;40800;52.704;6.398;2022-11-21T10:34:39;28.83;;;25.95;;
54897;SDS011;40800;52.704;6.398;2022-11-21T10:37:10;29.35;;;26.35;;
54897;SDS011;40800;52.704;6.398;2022-11-21T10:39:43;29.98;;;26.90;;
54897;SDS011;40800;52.704;6.398;2022-11-21T10:44:47;28.38;;;25.50;;
54897;SDS011;40800;52.704;6.398;2022-11-21T10:47:32;28.17;;;25.27;;
54897;SDS011;40800;52.704;6.398;2022-11-21T10:53:07;27.48;;;24.77;;
54897;SDS011;40800;52.704;6.398;2022-11-21T10:55:57;27.98;;;25.13;;
54897;SDS011;40800;52.704;6.398;2022-11-21T11:01:00;29.70;;;26.70;;
54897;SDS011;40800;52.704;6.398;2022-11-21T11:03:26;29.67;;;26.70;;
54897;SDS011;40800;52.704;6.398;2022-11-21T11:05:54;30.17;;;27.08;;
54897;SDS011;40800;52.704;6.398;2022-11-21T11:08:22;29.95;;;26.75;;
54897;SDS011;40800;52.704;6.398;2022-11-21T11:10:59;32.50;;;27.63;;
54897;SDS011;40800;52.704;6.398;2022-11-21T11:13:30;30.33;;;27.30;;
54897;SDS011;40800;52.704;6.398;2022-11-21T11:16:01;31.10;;;27.88;;
54897;SDS011;40800;52.704;6.398;2022-11-21T11:18:27;32.25;;;28.88;;
54897;SDS011;40800;52.704;6.398;2022-11-21T11:21:07;31.08;;;27.80;;
54897;SDS011;40800;52.704;6.398;2022-11-21T11:23:36;30.67;;;27.58;;
54897;SDS011;40800;52.704;6.398;2022-11-21T11:26:02;32.15;;;28.85;;
54897;SDS011;40800;52.704;6.398;2022-11-21T11:28:43;35.25;;;30.98;;
54897;SDS011;40800;52.704;6.398;2022-11-21T11:31:09;36.17;;;32.15;;
54897;SDS011;40800;52.704;6.398;2022-11-21T11:33:36;34.05;;;30.35;;
54897;SDS011;40800;52.704;6.398;2022-11-21T11:44:35;35.88;;;30.90;;
54897;SDS011;40800;52.704;6.398;2022-11-21T11:47:33;34.58;;;30.75;;
54897;SDS011;40800;52.704;6.398;2022-11-21T11:50:10;34.55;;;30.65;;
54897;SDS011;40800;52.704;6.398;2022-11-21T11:52:56;37.05;;;32.00;;
54897;SDS011;40800;52.704;6.398;2022-11-21T11:58:37;35.92;;;31.50;;
54897;SDS011;40800;52.704;6.398;2022-11-21T12:01:33;35.95;;;31.92;;
54897;SDS011;40800;52.704;6.398;2022-11-21T12:09:56;39.63;;;33.80;;
54897;SDS011;40800;52.704;6.398;2022-11-21T12:12:34;36.50;;;32.40;;
54897;SDS011;40800;52.704;6.398;2022-11-21T12:23:24;43.55;;;36.08;;
54897;SDS011;40800;52.704;6.398;2022-11-21T12:26:03;35.97;;;32.03;;
54897;SDS011;40800;52.704;6.398;2022-11-21T12:28:47;37.55;;;33.45;;
54897;SDS011;40800;52.704;6.398;2022-11-21T12:50:53;37.38;;;32.30;;
54897;SDS011;40800;52.704;6.398;2022-11-21T12:56:29;40.90;;;33.45;;
54897;SDS011;40800;52.704;6.398;2022-11-21T12:59:04;39.42;;;31.90;;
54897;SDS011;40800;52.704;6.398;2022-11-21T13:04:10;37.72;;;31.08;;
54897;SDS011;40800;52.704;6.398;2022-11-21T13:06:41;39.03;;;32.20;;
54897;SDS011;40800;52.704;6.398;2022-11-21T13:09:11;43.63;;;35.10;;
54897;SDS011;40800;52.704;6.398;2022-11-21T13:14:45;38.80;;;31.92;;
54897;SDS011;40800;52.704;6.398;2022-11-21T13:23:00;39.15;;;32.70;;
54897;SDS011;40800;52.704;6.398;2022-11-21T13:30:46;38.63;;;32.43;;
54897;SDS011;40800;52.704;6.398;2022-11-21T13:36:04;39.35;;;32.15;;
54897;SDS011;40800;52.704;6.398;2022-11-21T13:47:02;43.13;;;32.95;;
54897;SDS011;40800;52.704;6.398;2022-11-21T13:52:23;40.60;;;32.33;;
54897;SDS011;40800;52.704;6.398;2022-11-21T14:03:50;46.05;;;35.67;;
54897;SDS011;40800;52.704;6.398;2022-11-21T14:06:33;49.20;;;35.38;;
54897;SDS011;40800;52.704;6.398;2022-11-21T14:11:53;47.83;;;35.28;;
54897;SDS011;40800;52.704;6.398;2022-11-21T14:19:56;50.78;;;35.70;;
54897;SDS011;40800;52.704;6.398;2022-11-21T14:22:38;68.63;;;36.97;;
54897;SDS011;40800;52.704;6.398;2022-11-21T14:25:06;68.43;;;38.40;;
54897;SDS011;40800;52.704;6.398;2022-11-21T14:27:36;51.97;;;36.78;;
54897;SDS011;40800;52.704;6.398;2022-11-21T14:30:03;53.80;;;35.47;;
54897;SDS011;40800;52.704;6.398;2022-11-21T14:32:29;53.22;;;36.75;;
54897;SDS011;40800;52.704;6.398;2022-11-21T14:37:53;51.50;;;36.50;;
54897;SDS011;40800;52.704;6.398;2022-11-21T14:40:20;53.47;;;36.92;;
54897;SDS011;40800;52.704;6.398;2022-11-21T14:42:47;55.42;;;37.20;;
54897;SDS011;40800;52.704;6.398;2022-11-21T14:45:22;57.85;;;36.53;;
54897;SDS011;40800;52.704;6.398;2022-11-21T14:47:49;62.33;;;37.97;;
54897;SDS011;40800;52.704;6.398;2022-11-21T14:50:23;56.83;;;35.17;;
54897;SDS011;40800;52.704;6.398;2022-11-21T14:52:53;54.08;;;36.50;;
54897;SDS011;40800;52.704;6.398;2022-11-21T14:55:23;54.83;;;34.95;;
54897;SDS011;40800;52.704;6.398;2022-11-21T14:57:53;63.83;;;39.20;;
54897;SDS011;40800;52.704;6.398;2022-11-21T15:00:22;63.53;;;38.70;;
54897;SDS011;40800;52.704;6.398;2022-11-21T15:02:53;62.50;;;37.97;;
54897;SDS011;40800;52.704;6.398;2022-11-21T15:05:20;62.25;;;38.00;;
54897;SDS011;40800;52.704;6.398;2022-11-21T15:07:47;67.65;;;40.75;;
54897;SDS011;40800;52.704;6.398;2022-11-21T15:10:17;65.97;;;40.97;;
54897;SDS011;40800;52.704;6.398;2022-11-21T15:15:25;69.00;;;41.22;;
54897;SDS011;40800;52.704;6.398;2022-11-21T15:17:56;64.50;;;38.85;;
54897;SDS011;40800;52.704;6.398;2022-11-21T15:20:23;72.40;;;40.90;;
54897;SDS011;40800;52.704;6.398;2022-11-21T15:22:52;67.63;;;39.55;;
54897;SDS011;40800;52.704;6.398;2022-11-21T15:25:20;71.18;;;41.47;;
54897;SDS011;40800;52.704;6.398;2022-11-21T15:30:28;70.60;;;41.97;;
54897;SDS011;40800;52.704;6.398;2022-11-21T15:35:38;72.00;;;41.67;;
54897;SDS011;40800;52.704;6.398;2022-11-21T15:46:30;78.78;;;42.45;;
54897;SDS011;40800;52.704;6.398;2022-11-21T15:49:08;76.53;;;41.88;;
54897;SDS011;40800;52.704;6.398;2022-11-21T15:51:39;90.97;;;44.22;;
54897;SDS011;40800;52.704;6.398;2022-11-21T15:54:06;82.60;;;43.28;;
54897;SDS011;40800;52.704;6.398;2022-11-21T15:56:38;75.75;;;44.28;;
54897;SDS011;40800;52.704;6.398;2022-11-21T15:59:04;83.50;;;45.22;;
54897;SDS011;40800;52.704;6.398;2022-11-21T16:01:33;89.97;;;46.65;;
54897;SDS011;40800;52.704;6.398;2022-11-21T16:04:00;89.45;;;47.42;;
54897;SDS011;40800;52.704;6.398;2022-11-21T16:06:27;95.43;;;50.22;;
54897;SDS011;40800;52.704;6.398;2022-11-21T16:08:54;102.03;;;48.58;;
54897;SDS011;40800;52.704;6.398;2022-11-21T16:11:24;87.43;;;45.92;;
54897;SDS011;40800;52.704;6.398;2022-11-21T16:13:51;91.30;;;46.55;;
54897;SDS011;40800;52.704;6.398;2022-11-21T16:16:19;83.82;;;45.20;;
54897;SDS011;40800;52.704;6.398;2022-11-21T16:21:11;88.03;;;47.38;;
54897;SDS011;40800;52.704;6.398;2022-11-21T16:23:37;91.43;;;47.22;;
54897;SDS011;40800;52.704;6.398;2022-11-21T16:26:03;97.65;;;50.63;;
54897;SDS011;40800;52.704;6.398;2022-11-21T16:28:30;94.68;;;47.33;;
54897;SDS011;40800;52.704;6.398;2022-11-21T16:30:56;88.03;;;46.33;;
54897;SDS011;40800;52.704;6.398;2022-11-21T16:33:22;101.10;;;49.67;;
54897;SDS011;40800;52.704;6.398;2022-11-21T16:35:48;87.32;;;47.10;;
54897;SDS011;40800;52.704;6.398;2022-11-21T16:38:18;90.72;;;47.35;;
54897;SDS011;40800;52.704;6.398;2022-11-21T16:40:59;97.13;;;48.03;;
54897;SDS011;40800;52.704;6.398;2022-11-21T16:43:27;95.75;;;48.83;;
54897;SDS011;40800;52.704;6.398;2022-11-21T16:45:53;98.53;;;51.00;;
54897;SDS011;40800;52.704;6.398;2022-11-21T16:48:20;97.17;;;49.97;;
54897;SDS011;40800;52.704;6.398;2022-11-21T16:50:47;105.85;;;50.40;;
54897;SDS011;40800;52.704;6.398;2022-11-21T16:53:13;91.88;;;48.40;;
54897;SDS011;40800;52.704;6.398;2022-11-21T16:55:39;84.05;;;46.58;;
54897;SDS011;40800;52.704;6.398;2022-11-21T16:58:04;92.57;;;47.50;;
54897;SDS011;40800;52.704;6.398;2022-11-21T17:00:30;100.78;;;48.63;;
54897;SDS011;40800;52.704;6.398;2022-11-21T17:02:56;93.67;;;47.90;;
54897;SDS011;40800;52.704;6.398;2022-11-21T17:05:22;93.85;;;46.88;;
54897;SDS011;40800;52.704;6.398;2022-11-21T17:07:49;103.95;;;50.63;;
54897;SDS011;40800;52.704;6.398;2022-11-21T17:10:15;94.97;;;48.58;;
54897;SDS011;40800;52.704;6.398;2022-11-21T17:12:41;93.25;;;47.50;;
54897;SDS011;40800;52.704;6.398;2022-11-21T17:15:08;97.22;;;49.22;;